createdAt,value
2019-03-18T00:00:47.275Z,72.75
2019-03-18T00:03:13.255Z,72.76
2019-03-18T00:05:39.209Z,72.79
2019-03-18T00:08:05.172Z,72.70
2019-03-18T00:10:31.518Z,72.60
2019-03-18T00:12:57.374Z,72.64
2019-03-18T00:15:23.442Z,72.70
2019-03-18T00:17:49.319Z,72.62
2019-03-18T00:20:15.257Z,72.56
2019-03-18T00:22:41.260Z,72.61
2019-03-18T00:25:08.211Z,72.57
2019-03-18T00:27:34.058Z,72.67
2019-03-18T00:29:59.956Z,72.57
2019-03-18T00:32:25.833Z,72.63
2019-03-18T00:34:51.774Z,72.56
2019-03-18T00:37:17.665Z,72.61
2019-03-18T00:39:43.520Z,72.68
2019-03-18T00:42:09.404Z,72.67
2019-03-18T00:44:35.299Z,72.64
2019-03-18T00:47:01.146Z,72.62
2019-03-18T00:49:27.364Z,72.59
2019-03-18T00:51:53.342Z,72.48
2019-03-18T00:54:19.272Z,72.51
2019-03-18T00:56:45.057Z,72.50
2019-03-18T00:59:11.030Z,72.48
2019-03-18T01:01:36.979Z,72.49
2019-03-18T01:04:02.962Z,72.45
2019-03-18T01:06:29.051Z,72.37
2019-03-18T01:08:55.019Z,72.51
2019-03-18T01:11:20.868Z,72.49
2019-03-18T01:13:46.757Z,72.51
2019-03-18T01:16:12.714Z,72.45
2019-03-18T01:18:38.550Z,72.44
2019-03-18T01:21:04.428Z,72.50
2019-03-18T01:23:30.299Z,72.42
2019-03-18T01:25:56.151Z,72.46
2019-03-18T01:28:22.129Z,72.47
2019-03-18T01:30:47.980Z,72.51
2019-03-18T01:33:13.821Z,72.43
2019-03-18T01:35:40.089Z,72.40
2019-03-18T01:38:05.993Z,72.38
2019-03-18T01:40:31.840Z,72.38
2019-03-18T01:42:57.742Z,72.34
2019-03-18T01:45:23.664Z,72.33
2019-03-18T01:47:49.481Z,72.31
2019-03-18T01:50:15.443Z,72.30
2019-03-18T01:52:41.506Z,72.28
2019-03-18T01:55:07.500Z,72.24
2019-03-18T01:57:33.372Z,72.22
2019-03-18T01:59:59.389Z,72.15
2019-03-18T02:02:25.266Z,72.16
2019-03-18T02:04:51.143Z,72.24
2019-03-18T02:07:17.115Z,72.30
2019-03-18T02:09:43.148Z,72.28
2019-03-18T02:12:09.011Z,72.24
2019-03-18T02:14:34.860Z,72.19
2019-03-18T02:17:00.774Z,72.19
2019-03-18T02:19:26.642Z,72.19
2019-03-18T02:21:52.482Z,72.20
2019-03-18T02:24:18.363Z,72.23
2019-03-18T02:26:44.215Z,72.24
2019-03-18T02:29:10.090Z,72.21
2019-03-18T02:31:36.061Z,72.20
2019-03-18T02:34:01.925Z,72.20
2019-03-18T02:36:27.788Z,72.19
2019-03-18T02:38:53.878Z,72.21
2019-03-18T02:41:19.729Z,72.19
2019-03-18T02:43:45.571Z,72.18
2019-03-18T02:46:11.431Z,72.19
2019-03-18T02:48:37.312Z,72.25
2019-03-18T02:51:03.375Z,72.14
2019-03-18T02:53:29.225Z,72.15
2019-03-18T02:55:55.072Z,72.16
2019-03-18T02:58:21.044Z,72.16
2019-03-18T03:00:47.000Z,72.16
2019-03-18T03:03:12.848Z,72.13
2019-03-18T03:05:38.786Z,72.12
2019-03-18T03:08:04.714Z,72.15
2019-03-18T03:10:30.560Z,72.14
2019-03-18T03:12:56.404Z,72.12
2019-03-18T03:15:22.281Z,72.06
2019-03-18T03:17:48.131Z,72.10
2019-03-18T03:20:14.079Z,72.07
2019-03-18T03:22:40.046Z,72.02
2019-03-18T03:25:06.771Z,72.02
2019-03-18T03:27:32.738Z,72.05
2019-03-18T03:29:58.664Z,72.06
2019-03-18T03:32:24.545Z,72.09
2019-03-18T03:34:50.502Z,72.06
2019-03-18T03:37:16.494Z,72.01
2019-03-18T03:39:42.548Z,72.07
2019-03-18T03:42:08.509Z,72.06
2019-03-18T03:44:34.411Z,72.05
2019-03-18T03:47:00.244Z,72.05
2019-03-18T03:49:26.109Z,72.03
2019-03-18T03:51:52.183Z,72.10
2019-03-18T03:54:18.024Z,72.11
2019-03-18T03:56:43.985Z,72.06
2019-03-18T03:59:09.962Z,72.07
2019-03-18T04:01:35.956Z,72.04
2019-03-18T04:04:02.045Z,72.07
2019-03-18T04:06:27.925Z,72.08
2019-03-18T04:08:53.863Z,72.10
2019-03-18T04:11:19.734Z,72.10
2019-03-18T04:13:45.716Z,72.06
2019-03-18T04:16:11.592Z,72.05
2019-03-18T04:18:37.419Z,72.09
2019-03-18T04:21:03.306Z,72.04
2019-03-18T04:23:29.271Z,72.00
2019-03-18T04:25:55.108Z,72.06
2019-03-18T04:28:20.965Z,72.06
2019-03-18T04:30:46.834Z,72.09
2019-03-18T04:33:12.807Z,72.10
2019-03-18T04:35:38.788Z,72.08
2019-03-18T04:38:04.657Z,72.04
2019-03-18T04:40:30.608Z,72.04
2019-03-18T04:42:56.495Z,72.01
2019-03-18T04:45:22.332Z,71.95
2019-03-18T04:47:48.188Z,71.99
2019-03-18T04:50:14.183Z,71.97
2019-03-18T04:52:40.224Z,71.98
2019-03-18T04:55:06.178Z,71.96
2019-03-18T04:57:32.052Z,71.94
2019-03-18T04:59:57.907Z,71.93
2019-03-18T05:02:23.801Z,71.92
2019-03-18T05:04:49.792Z,71.87
2019-03-18T05:07:15.650Z,71.85
2019-03-18T05:09:41.487Z,71.88
2019-03-18T05:12:07.373Z,71.82
2019-03-18T05:14:33.229Z,71.81
2019-03-18T05:16:59.080Z,71.77
2019-03-18T05:19:24.955Z,71.84
2019-03-18T05:21:50.822Z,71.89
2019-03-18T05:24:16.666Z,71.89
2019-03-18T05:26:42.551Z,71.89
2019-03-18T05:29:08.494Z,71.82
2019-03-18T05:31:34.361Z,71.82
2019-03-18T05:34:00.251Z,71.80
2019-03-18T05:36:26.108Z,71.77
2019-03-18T05:38:51.977Z,71.75
2019-03-18T05:41:17.968Z,71.75
2019-03-18T05:43:43.814Z,71.78
2019-03-18T05:46:09.652Z,71.77
2019-03-18T05:48:35.524Z,71.70
2019-03-18T05:51:01.376Z,71.75
2019-03-18T05:53:27.434Z,71.72
2019-03-18T05:55:53.305Z,71.75
2019-03-18T05:58:19.160Z,71.64
2019-03-18T06:00:45.031Z,71.66
2019-03-18T06:03:11.090Z,71.66
2019-03-18T06:05:37.044Z,71.64
2019-03-18T06:08:02.845Z,71.74
2019-03-18T06:10:28.847Z,71.75
2019-03-18T06:12:54.730Z,71.78
2019-03-18T06:15:20.571Z,71.75
2019-03-18T06:17:52.497Z,71.70
2019-03-18T06:20:14.109Z,71.73
2019-03-18T06:22:39.983Z,71.67
2019-03-18T06:25:06.760Z,71.67
2019-03-18T06:27:32.639Z,71.66
2019-03-18T06:29:58.490Z,71.56
2019-03-18T06:32:24.363Z,71.69
2019-03-18T06:34:50.303Z,71.76
2019-03-18T06:37:16.158Z,71.81
2019-03-18T06:39:42.006Z,71.82
2019-03-18T06:42:07.990Z,71.79
2019-03-18T06:44:33.857Z,71.76
2019-03-18T06:46:59.804Z,71.70
2019-03-18T06:49:25.674Z,71.66
2019-03-18T06:51:51.619Z,71.52
2019-03-18T06:54:17.758Z,71.65
2019-03-18T06:56:43.611Z,71.68
2019-03-18T06:59:09.481Z,71.71
2019-03-18T07:01:35.352Z,71.71
2019-03-18T07:04:01.297Z,71.62
2019-03-18T07:06:27.132Z,71.59
2019-03-18T07:08:53.044Z,71.69
2019-03-18T07:11:18.851Z,71.71
2019-03-18T07:13:44.709Z,71.68
2019-03-18T07:16:10.768Z,71.65
2019-03-18T07:18:36.622Z,71.64
2019-03-18T07:21:02.502Z,71.63
2019-03-18T07:23:28.456Z,71.60
2019-03-18T07:25:54.312Z,71.58
2019-03-18T07:28:20.150Z,71.54
2019-03-18T07:30:46.008Z,71.55
2019-03-18T07:33:12.790Z,71.53
2019-03-18T07:35:38.795Z,71.50
2019-03-18T07:38:04.644Z,71.47
2019-03-18T07:40:32.405Z,71.50
2019-03-18T07:42:58.370Z,71.48
2019-03-18T07:45:24.318Z,71.46
2019-03-18T07:47:50.160Z,71.44
2019-03-18T07:50:16.020Z,71.41
2019-03-18T07:52:41.895Z,71.39
2019-03-18T07:55:08.083Z,71.33
2019-03-18T07:57:34.036Z,71.38
2019-03-18T08:00:00.140Z,71.39
2019-03-18T08:02:26.158Z,71.32
2019-03-18T08:04:52.005Z,71.33
2019-03-18T08:07:17.876Z,71.35
2019-03-18T08:09:43.770Z,71.35
2019-03-18T08:12:09.639Z,71.35
2019-03-18T08:14:35.593Z,71.33
2019-03-18T08:17:01.464Z,71.34
2019-03-18T08:19:27.328Z,71.35
2019-03-18T08:21:53.175Z,71.33
2019-03-18T08:24:19.048Z,71.31
2019-03-18T08:26:45.012Z,71.35
2019-03-18T08:29:10.882Z,71.39
2019-03-18T08:31:36.736Z,71.44
2019-03-18T08:34:02.704Z,71.41
2019-03-18T08:36:28.572Z,71.36
2019-03-18T08:38:54.449Z,71.37
2019-03-18T08:41:20.315Z,71.39
2019-03-18T08:43:46.288Z,71.41
2019-03-18T08:46:12.229Z,71.40
2019-03-18T08:48:38.107Z,71.34
2019-03-18T08:51:04.084Z,71.31
2019-03-18T08:53:29.933Z,71.30
2019-03-18T08:55:55.972Z,71.33
2019-03-18T08:58:21.814Z,71.34
2019-03-18T09:00:47.782Z,71.36
2019-03-18T09:03:13.740Z,71.30
2019-03-18T09:05:39.586Z,71.32
2019-03-18T09:08:05.438Z,71.32
2019-03-18T09:10:31.333Z,71.33
2019-03-18T09:12:57.315Z,71.31
2019-03-18T09:15:23.252Z,71.22
2019-03-18T09:17:49.040Z,71.20
2019-03-18T09:20:15.376Z,71.24
2019-03-18T09:22:41.267Z,71.25
2019-03-18T09:25:08.016Z,71.19
2019-03-18T09:27:33.881Z,71.18
2019-03-18T09:29:59.770Z,71.05
2019-03-18T09:32:25.625Z,71.15
2019-03-18T09:34:54.543Z,71.07
2019-03-18T09:37:19.237Z,71.18
2019-03-18T09:39:45.086Z,71.06
2019-03-18T09:42:10.972Z,71.14
2019-03-18T09:44:36.968Z,71.42
2019-03-18T09:47:02.931Z,71.47
2019-03-18T09:49:28.788Z,71.41
2019-03-18T09:51:54.705Z,71.42
2019-03-18T09:54:20.569Z,71.33
2019-03-18T09:56:46.601Z,71.22
2019-03-18T09:59:12.456Z,71.35
2019-03-18T10:01:38.335Z,71.41
2019-03-18T10:04:04.285Z,71.35
2019-03-18T10:06:30.166Z,71.45
2019-03-18T10:08:56.036Z,71.42
2019-03-18T10:11:22.038Z,71.27
2019-03-18T10:13:47.891Z,71.40
2019-03-18T10:16:13.750Z,71.47
2019-03-18T10:18:39.832Z,71.46
2019-03-18T10:21:05.689Z,71.33
2019-03-18T10:23:31.549Z,71.16
2019-03-18T10:25:57.448Z,71.30
2019-03-18T10:28:23.285Z,71.27
2019-03-18T10:30:49.135Z,71.20
2019-03-18T10:33:15.005Z,71.27
2019-03-18T10:35:40.882Z,71.41
2019-03-18T10:38:06.730Z,71.27
2019-03-18T10:40:32.714Z,71.26
2019-03-18T10:42:58.579Z,71.24
2019-03-18T10:45:26.036Z,71.22
2019-03-18T10:47:54.711Z,71.18
2019-03-18T10:50:19.694Z,71.21
2019-03-18T10:52:45.653Z,71.17
2019-03-18T10:55:11.761Z,71.03
2019-03-18T10:57:37.745Z,71.09
2019-03-18T11:00:05.178Z,71.14
2019-03-18T11:02:31.036Z,71.26
2019-03-18T11:04:57.078Z,71.31
2019-03-18T11:07:22.937Z,71.36
2019-03-18T11:09:48.808Z,71.36
2019-03-18T11:12:14.722Z,71.39
2019-03-18T11:14:40.604Z,71.38
2019-03-18T11:17:06.491Z,71.42
2019-03-18T11:19:32.350Z,71.43
2019-03-18T11:21:58.192Z,71.55
2019-03-18T11:24:24.254Z,71.51
2019-03-18T11:26:50.126Z,71.40
2019-03-18T11:29:16.090Z,71.27
2019-03-18T11:31:41.948Z,71.15
2019-03-18T11:34:07.899Z,71.09
2019-03-18T11:36:33.797Z,71.01
2019-03-18T11:38:59.619Z,70.95
2019-03-18T11:41:25.490Z,70.87
2019-03-18T11:43:51.370Z,70.83
2019-03-18T11:46:17.234Z,70.79
2019-03-18T11:48:43.215Z,70.72
2019-03-18T11:51:09.136Z,70.69
2019-03-18T11:53:35.074Z,70.64
2019-03-18T11:56:00.916Z,70.59
2019-03-18T11:58:27.474Z,70.55
2019-03-18T12:00:53.443Z,70.52
2019-03-18T12:03:19.328Z,70.52
2019-03-18T12:05:45.166Z,70.48
2019-03-18T12:08:11.031Z,70.42
2019-03-18T12:10:37.028Z,70.46
2019-03-18T12:13:03.025Z,70.54
2019-03-18T12:15:28.976Z,70.61
2019-03-18T12:17:54.957Z,70.61
2019-03-18T12:20:24.629Z,70.62
2019-03-18T12:22:48.437Z,70.56
2019-03-18T12:25:14.322Z,70.56
2019-03-18T12:27:40.254Z,70.54
2019-03-18T12:30:18.838Z,70.57
2019-03-18T12:32:44.808Z,70.53
2019-03-18T12:35:10.784Z,70.43
2019-03-18T12:37:36.640Z,70.46
2019-03-18T12:40:03.006Z,70.50
2019-03-18T12:42:28.943Z,70.47
2019-03-18T12:44:54.843Z,70.40
2019-03-18T12:47:20.822Z,70.43
2019-03-18T12:49:46.670Z,70.42
2019-03-18T12:52:12.558Z,70.36
2019-03-18T12:54:38.425Z,70.34
2019-03-18T12:57:04.486Z,70.44
2019-03-18T12:59:30.577Z,70.58
2019-03-18T13:01:56.422Z,70.66
2019-03-18T13:04:22.334Z,70.50
2019-03-18T13:06:48.206Z,70.47
2019-03-18T13:09:14.061Z,70.54
2019-03-18T13:11:39.894Z,70.69
2019-03-18T13:14:05.815Z,70.76
2019-03-18T13:16:31.673Z,70.87
2019-03-18T13:18:57.547Z,71.00
2019-03-18T13:21:23.441Z,70.96
2019-03-18T13:23:49.328Z,71.01
2019-03-18T13:26:15.238Z,70.95
2019-03-18T13:28:41.115Z,70.90
2019-03-18T13:31:07.088Z,70.84
2019-03-18T13:33:32.953Z,70.82
2019-03-18T13:35:58.822Z,70.88
2019-03-18T13:38:24.792Z,70.93
2019-03-18T13:40:50.657Z,70.92
2019-03-18T13:43:16.616Z,70.88
2019-03-18T13:45:54.380Z,70.79
2019-03-18T13:48:10.162Z,70.84
2019-03-18T13:50:36.014Z,70.95
2019-03-18T13:53:02.060Z,70.97
2019-03-18T13:55:28.087Z,70.91
2019-03-18T13:57:53.946Z,70.94
2019-03-18T14:00:20.420Z,70.90
2019-03-18T14:02:46.391Z,70.94
2019-03-18T14:05:12.251Z,71.04
2019-03-18T14:07:38.092Z,71.20
2019-03-18T14:10:10.936Z,71.23
2019-03-18T14:12:37.155Z,71.14
2019-03-18T14:15:04.975Z,71.02
2019-03-18T14:17:30.895Z,71.26
2019-03-18T14:19:56.759Z,71.31
2019-03-18T14:22:22.617Z,71.24
2019-03-18T14:24:48.582Z,71.27
2019-03-18T14:27:14.545Z,71.46
2019-03-18T14:29:40.405Z,71.54
2019-03-18T14:32:06.384Z,71.54
2019-03-18T14:34:32.222Z,71.60
2019-03-18T14:36:58.088Z,71.53
2019-03-18T14:39:24.167Z,71.41
2019-03-18T14:41:50.102Z,71.31
2019-03-18T14:44:15.943Z,71.43
2019-03-18T14:46:41.820Z,71.50
2019-03-18T14:49:07.780Z,71.55
2019-03-18T14:51:45.130Z,71.58
2019-03-18T14:54:01.496Z,71.56
2019-03-18T14:56:27.344Z,71.42
2019-03-18T14:58:53.200Z,71.49
2019-03-18T15:01:19.294Z,71.41
2019-03-18T15:03:45.139Z,71.42
2019-03-18T15:06:11.098Z,71.40
2019-03-18T15:08:37.007Z,71.41
2019-03-18T15:11:03.018Z,71.36
2019-03-18T15:13:31.278Z,71.31
2019-03-18T15:15:57.450Z,71.26
2019-03-18T15:18:23.443Z,71.30
2019-03-18T15:20:49.369Z,71.30
2019-03-18T15:23:15.340Z,71.37
2019-03-18T15:25:41.315Z,71.40
2019-03-18T15:28:07.188Z,71.39
2019-03-18T15:30:33.065Z,71.40
2019-03-18T15:32:59.004Z,71.45
2019-03-18T15:35:24.856Z,71.39
2019-03-18T15:37:50.798Z,71.36
2019-03-18T15:40:18.576Z,71.37
2019-03-18T15:42:44.472Z,71.28
2019-03-18T15:45:11.640Z,71.30
2019-03-18T15:47:37.505Z,71.31
2019-03-18T15:50:05.296Z,71.31
2019-03-18T15:52:31.168Z,71.31
2019-03-18T15:54:57.070Z,71.37
2019-03-18T15:57:29.592Z,71.36
2019-03-18T15:59:50.821Z,71.45
2019-03-18T16:02:16.994Z,71.47
2019-03-18T16:04:42.865Z,71.51
2019-03-18T16:07:08.716Z,71.63
2019-03-18T16:09:34.582Z,71.56
2019-03-18T16:12:00.448Z,71.52
2019-03-18T16:14:26.409Z,71.56
2019-03-18T16:17:01.534Z,71.62
2019-03-18T16:19:20.062Z,71.60
2019-03-18T16:21:45.949Z,71.59
2019-03-18T16:24:11.834Z,71.66
2019-03-18T16:26:37.796Z,71.64
2019-03-18T16:29:03.730Z,71.65
2019-03-18T16:31:29.614Z,71.70
2019-03-18T16:33:55.482Z,71.69
2019-03-18T16:36:21.327Z,71.66
2019-03-18T16:38:47.204Z,71.63
2019-03-18T16:41:13.138Z,71.70
2019-03-18T16:43:38.999Z,71.70
2019-03-18T16:46:04.893Z,71.78
2019-03-18T16:48:31.638Z,71.79
2019-03-18T16:50:57.630Z,71.74
2019-03-18T16:53:23.508Z,71.63
2019-03-18T16:55:49.563Z,71.61
2019-03-18T16:58:15.425Z,71.60
2019-03-18T17:00:41.289Z,71.64
2019-03-18T17:03:07.308Z,71.68
2019-03-18T17:05:33.162Z,71.65
2019-03-18T17:07:59.067Z,71.57
2019-03-18T17:10:25.019Z,71.58
2019-03-18T17:12:50.890Z,71.58
2019-03-18T17:15:17.279Z,71.66
2019-03-18T17:17:43.218Z,71.71
2019-03-18T17:20:12.512Z,71.75
2019-03-18T17:22:48.017Z,71.77
2019-03-18T17:25:13.381Z,71.77
2019-03-18T17:27:39.473Z,71.74
2019-03-18T17:30:07.244Z,71.82
2019-03-18T17:32:33.190Z,71.83
2019-03-18T17:34:59.041Z,71.74
2019-03-18T17:37:25.041Z,71.85
2019-03-18T17:39:50.883Z,71.83
2019-03-18T17:42:16.847Z,71.80
2019-03-18T17:44:42.723Z,71.81
2019-03-18T17:47:08.587Z,71.83
2019-03-18T17:49:34.440Z,71.92
2019-03-18T17:52:00.314Z,72.01
2019-03-18T17:54:26.174Z,71.90
2019-03-18T17:56:52.037Z,71.83
2019-03-18T17:59:18.018Z,71.88
2019-03-18T18:01:43.859Z,71.87
2019-03-18T18:04:09.868Z,71.98
2019-03-18T18:06:35.877Z,71.96
2019-03-18T18:09:01.737Z,71.84
2019-03-18T18:11:27.592Z,71.87
2019-03-18T18:13:53.473Z,71.83
2019-03-18T18:16:19.530Z,71.94
2019-03-18T18:18:45.538Z,71.92
2019-03-18T18:21:11.444Z,71.94
2019-03-18T18:23:37.304Z,71.97
2019-03-18T18:26:03.261Z,71.98
2019-03-18T18:28:29.157Z,71.92
2019-03-18T18:30:54.978Z,71.99
2019-03-18T18:33:20.861Z,71.97
2019-03-18T18:35:46.757Z,71.97
2019-03-18T18:38:12.635Z,71.94
2019-03-18T18:40:38.588Z,71.86
2019-03-18T18:43:04.594Z,71.86
2019-03-18T18:45:30.460Z,71.87
2019-03-18T18:47:56.339Z,71.88
2019-03-18T18:50:22.243Z,71.80
2019-03-18T18:52:48.242Z,71.85
2019-03-18T18:55:14.133Z,71.85
2019-03-18T18:57:40.351Z,71.88
2019-03-18T19:00:15.885Z,71.86
2019-03-18T19:02:41.776Z,71.77
2019-03-18T19:05:08.728Z,71.87
2019-03-18T19:07:34.668Z,71.80
2019-03-18T19:10:00.656Z,71.91
2019-03-18T19:12:26.507Z,71.90
2019-03-18T19:14:52.473Z,71.87
2019-03-18T19:17:18.348Z,71.93
2019-03-18T19:19:44.192Z,71.92
2019-03-18T19:22:10.055Z,71.92
2019-03-18T19:24:35.938Z,71.87
2019-03-18T19:27:01.804Z,71.88
2019-03-18T19:29:27.652Z,71.91
2019-03-18T19:31:53.608Z,71.98
2019-03-18T19:34:19.568Z,72.03
2019-03-18T19:36:45.548Z,71.91
2019-03-18T19:39:11.514Z,71.98
2019-03-18T19:41:40.030Z,71.95
2019-03-18T19:44:05.095Z,71.99
2019-03-18T19:46:30.956Z,71.93
2019-03-18T19:48:56.817Z,71.93
2019-03-18T19:51:22.651Z,71.81
2019-03-18T19:53:49.578Z,71.79
2019-03-18T19:56:15.597Z,71.90
2019-03-18T19:58:41.568Z,71.90
2019-03-18T20:01:07.398Z,71.90
2019-03-18T20:03:33.271Z,71.89
2019-03-18T20:05:59.234Z,71.95
2019-03-18T20:08:25.208Z,71.97
2019-03-18T20:10:51.168Z,71.82
2019-03-18T20:13:17.122Z,71.85
2019-03-18T20:15:42.986Z,71.87
2019-03-18T20:18:08.840Z,71.83
2019-03-18T20:20:34.680Z,71.88
2019-03-18T20:23:00.737Z,71.86
2019-03-18T20:25:26.608Z,71.85
2019-03-18T20:27:52.461Z,71.94
2019-03-18T20:30:20.219Z,71.90
2019-03-18T20:32:46.184Z,71.79
2019-03-18T20:35:12.775Z,71.84
2019-03-18T20:37:38.645Z,71.84
2019-03-18T20:40:06.121Z,71.84
2019-03-18T20:42:31.962Z,71.77
2019-03-18T20:44:57.824Z,71.76
2019-03-18T20:47:23.719Z,71.80
2019-03-18T20:49:49.618Z,71.82
2019-03-18T20:52:16.960Z,71.86
2019-03-18T20:54:43.033Z,71.89
2019-03-18T20:57:08.879Z,71.94
2019-03-18T20:59:34.740Z,71.88
2019-03-18T21:02:02.290Z,71.99
2019-03-18T21:04:28.271Z,71.93
2019-03-18T21:06:54.305Z,71.89
2019-03-18T21:09:20.157Z,71.91
2019-03-18T21:11:46.012Z,71.87
2019-03-18T21:14:11.880Z,71.92
2019-03-18T21:16:37.757Z,72.01
2019-03-18T21:19:03.756Z,72.00
2019-03-18T21:21:29.644Z,71.91
2019-03-18T21:23:55.482Z,71.89
2019-03-18T21:26:21.347Z,71.87
2019-03-18T21:28:47.210Z,71.93
2019-03-18T21:31:13.069Z,71.90
2019-03-18T21:33:38.918Z,71.90
2019-03-18T21:36:04.789Z,71.93
2019-03-18T21:38:30.648Z,71.93
2019-03-18T21:40:56.524Z,71.95
2019-03-18T21:43:22.403Z,71.98
2019-03-18T21:45:48.243Z,71.92
2019-03-18T21:48:14.101Z,72.00
2019-03-18T21:50:39.990Z,72.00
2019-03-18T21:53:05.963Z,71.99
2019-03-18T21:55:31.809Z,72.08
2019-03-18T21:57:57.675Z,72.08
2019-03-18T22:00:23.530Z,72.08
2019-03-18T22:02:50.649Z,72.06
2019-03-18T22:05:16.628Z,72.04
2019-03-18T22:07:42.470Z,72.06
2019-03-18T22:10:09.527Z,72.14
2019-03-18T22:12:35.403Z,72.19
2019-03-18T22:15:01.346Z,72.19
2019-03-18T22:17:27.280Z,72.16
2019-03-18T22:19:53.134Z,72.13
2019-03-18T22:22:18.994Z,72.23
2019-03-18T22:24:45.773Z,72.18
2019-03-18T22:27:11.901Z,72.16
2019-03-18T22:29:37.734Z,72.14
2019-03-18T22:32:03.703Z,72.18
2019-03-18T22:34:29.593Z,72.12
2019-03-18T22:36:55.502Z,72.12
2019-03-18T22:39:21.365Z,72.03
2019-03-18T22:41:47.315Z,72.04
2019-03-18T22:44:13.576Z,72.19
2019-03-18T22:46:39.423Z,72.23
2019-03-18T22:49:05.326Z,72.39
2019-03-18T22:51:31.162Z,72.36
2019-03-18T22:53:57.043Z,72.45
2019-03-18T22:56:22.922Z,72.42
2019-03-18T22:58:48.801Z,72.46
2019-03-18T23:01:16.052Z,72.47
2019-03-18T23:03:42.103Z,72.38
2019-03-18T23:06:07.962Z,72.44
2019-03-18T23:08:33.830Z,72.35
2019-03-18T23:10:59.797Z,72.36
2019-03-18T23:13:25.638Z,72.49
2019-03-18T23:15:51.498Z,72.53
2019-03-18T23:18:17.695Z,72.45
2019-03-18T23:20:43.518Z,72.46
2019-03-18T23:23:09.379Z,72.55
2019-03-18T23:25:35.239Z,72.50
2019-03-18T23:28:01.406Z,72.52
2019-03-18T23:30:27.283Z,72.46
2019-03-18T23:32:53.142Z,72.52
2019-03-18T23:35:19.022Z,72.53
2019-03-18T23:37:44.871Z,72.57
2019-03-18T23:40:11.334Z,72.60
2019-03-18T23:42:37.316Z,72.66
2019-03-18T23:45:04.065Z,72.61
2019-03-18T23:47:30.028Z,72.67
2019-03-18T23:49:55.995Z,72.63
2019-03-18T23:52:21.834Z,72.79
2019-03-18T23:54:47.692Z,72.83
2019-03-18T23:57:13.550Z,72.81
2019-03-18T23:59:39.404Z,72.77
